sensor_id;sensor_type;location;lat;lon;timestamp;temperature;humidity
71672;DHT22;62112;45.638;11.714;2022-09-25T00:00:13;23.20;57.40
71672;DHT22;62112;45.638;11.714;2022-09-25T00:02:39;23.30;57.80
71672;DHT22;62112;45.638;11.714;2022-09-25T00:05:05;23.40;57.60
71672;DHT22;62112;45.638;11.714;2022-09-25T00:07:31;23.30;57.50
71672;DHT22;62112;45.638;11.714;2022-09-25T00:09:56;23.30;57.60
71672;DHT22;62112;45.638;11.714;2022-09-25T00:12:22;23.30;57.50
71672;DHT22;62112;45.638;11.714;2022-09-25T00:14:49;23.30;57.70
71672;DHT22;62112;45.638;11.714;2022-09-25T00:17:15;23.30;57.70
71672;DHT22;62112;45.638;11.714;2022-09-25T00:19:41;23.30;57.40
71672;DHT22;62112;45.638;11.714;2022-09-25T00:22:21;23.30;57.50
71672;DHT22;62112;45.638;11.714;2022-09-25T00:24:47;23.30;57.80
71672;DHT22;62112;45.638;11.714;2022-09-25T00:27:15;23.30;57.80
71672;DHT22;62112;45.638;11.714;2022-09-25T00:29:41;23.30;57.40
71672;DHT22;62112;45.638;11.714;2022-09-25T00:32:09;23.30;57.40
71672;DHT22;62112;45.638;11.714;2022-09-25T00:34:38;23.20;57.70
71672;DHT22;62112;45.638;11.714;2022-09-25T00:37:05;23.30;57.50
71672;DHT22;62112;45.638;11.714;2022-09-25T00:39:31;23.30;57.40
71672;DHT22;62112;45.638;11.714;2022-09-25T00:41:57;23.20;57.70
71672;DHT22;62112;45.638;11.714;2022-09-25T00:50:35;23.30;57.50
71672;DHT22;62112;45.638;11.714;2022-09-25T00:53:12;23.30;57.80
71672;DHT22;62112;45.638;11.714;2022-09-25T00:55:41;23.20;57.60
71672;DHT22;62112;45.638;11.714;2022-09-25T00:58:08;23.20;57.50
71672;DHT22;62112;45.638;11.714;2022-09-25T01:00:34;23.30;57.40
71672;DHT22;62112;45.638;11.714;2022-09-25T01:03:00;23.20;57.50
71672;DHT22;62112;45.638;11.714;2022-09-25T01:05:29;23.20;57.70
71672;DHT22;62112;45.638;11.714;2022-09-25T01:07:58;23.20;57.80
71672;DHT22;62112;45.638;11.714;2022-09-25T01:10:25;23.20;57.70
71672;DHT22;62112;45.638;11.714;2022-09-25T01:12:52;23.30;57.80
71672;DHT22;62112;45.638;11.714;2022-09-25T01:37:44;23.30;57.70
71672;DHT22;62112;45.638;11.714;2022-09-25T01:40:25;23.20;57.80
71672;DHT22;62112;45.638;11.714;2022-09-25T01:43:21;23.20;57.80
71672;DHT22;62112;45.638;11.714;2022-09-25T01:48:38;23.20;57.80
71672;DHT22;62112;45.638;11.714;2022-09-25T01:51:28;23.20;57.80
71672;DHT22;62112;45.638;11.714;2022-09-25T01:54:04;23.20;57.80
71672;DHT22;62112;45.638;11.714;2022-09-25T01:56:50;23.10;57.20
71672;DHT22;62112;45.638;11.714;2022-09-25T01:59:44;23.20;57.80
71672;DHT22;62112;45.638;11.714;2022-09-25T02:02:14;23.20;57.70
71672;DHT22;62112;45.638;11.714;2022-09-25T02:04:55;23.20;57.80
71672;DHT22;62112;45.638;11.714;2022-09-25T02:07:30;23.20;58.10
71672;DHT22;62112;45.638;11.714;2022-09-25T02:10:04;23.20;57.60
71672;DHT22;62112;45.638;11.714;2022-09-25T02:12:37;23.20;57.60
71672;DHT22;62112;45.638;11.714;2022-09-25T02:15:19;23.10;57.60
71672;DHT22;62112;45.638;11.714;2022-09-25T02:17:59;23.20;57.80
71672;DHT22;62112;45.638;11.714;2022-09-25T02:23:52;23.20;58.10
71672;DHT22;62112;45.638;11.714;2022-09-25T02:26:25;23.20;57.70
71672;DHT22;62112;45.638;11.714;2022-09-25T02:28:52;23.10;57.70
71672;DHT22;62112;45.638;11.714;2022-09-25T02:31:20;23.20;57.50
71672;DHT22;62112;45.638;11.714;2022-09-25T02:33:49;23.20;57.80
71672;DHT22;62112;45.638;11.714;2022-09-25T02:36:17;23.10;57.60
71672;DHT22;62112;45.638;11.714;2022-09-25T02:38:44;23.10;57.40
71672;DHT22;62112;45.638;11.714;2022-09-25T02:41:36;23.10;57.50
71672;DHT22;62112;45.638;11.714;2022-09-25T02:44:40;23.10;57.80
71672;DHT22;62112;45.638;11.714;2022-09-25T02:47:27;23.10;57.50
71672;DHT22;62112;45.638;11.714;2022-09-25T02:52:56;23.20;58.20
71672;DHT22;62112;45.638;11.714;2022-09-25T02:58:08;23.20;58.00
71672;DHT22;62112;45.638;11.714;2022-09-25T03:00:37;23.20;57.70
71672;DHT22;62112;45.638;11.714;2022-09-25T03:03:07;23.10;57.60
71672;DHT22;62112;45.638;11.714;2022-09-25T03:05:34;23.00;57.80
71672;DHT22;62112;45.638;11.714;2022-09-25T03:08:01;23.10;57.80
71672;DHT22;62112;45.638;11.714;2022-09-25T03:10:47;23.10;57.80
71672;DHT22;62112;45.638;11.714;2022-09-25T03:13:22;23.10;57.40
71672;DHT22;62112;45.638;11.714;2022-09-25T03:16:01;23.20;58.00
71672;DHT22;62112;45.638;11.714;2022-09-25T03:18:28;23.10;57.60
71672;DHT22;62112;45.638;11.714;2022-09-25T03:20:56;23.10;57.70
71672;DHT22;62112;45.638;11.714;2022-09-25T03:23:23;23.20;57.80
71672;DHT22;62112;45.638;11.714;2022-09-25T03:25:51;23.10;57.80
71672;DHT22;62112;45.638;11.714;2022-09-25T03:28:19;23.10;57.30
71672;DHT22;62112;45.638;11.714;2022-09-25T03:30:56;23.10;58.00
71672;DHT22;62112;45.638;11.714;2022-09-25T03:33:24;23.10;57.80
71672;DHT22;62112;45.638;11.714;2022-09-25T03:36:06;23.10;58.00
71672;DHT22;62112;45.638;11.714;2022-09-25T03:38:35;23.10;57.90
71672;DHT22;62112;45.638;11.714;2022-09-25T03:41:02;23.10;57.90
71672;DHT22;62112;45.638;11.714;2022-09-25T03:43:29;23.20;57.60
71672;DHT22;62112;45.638;11.714;2022-09-25T03:45:57;23.10;57.80
71672;DHT22;62112;45.638;11.714;2022-09-25T03:48:23;23.10;57.90
71672;DHT22;62112;45.638;11.714;2022-09-25T03:50:49;23.10;57.70
71672;DHT22;62112;45.638;11.714;2022-09-25T03:53:16;23.10;57.90
71672;DHT22;62112;45.638;11.714;2022-09-25T03:55:44;23.10;57.70
71672;DHT22;62112;45.638;11.714;2022-09-25T03:58:14;23.10;57.80
71672;DHT22;62112;45.638;11.714;2022-09-25T04:00:40;23.10;58.00
71672;DHT22;62112;45.638;11.714;2022-09-25T04:03:09;23.10;57.90
71672;DHT22;62112;45.638;11.714;2022-09-25T04:05:36;23.10;58.00
71672;DHT22;62112;45.638;11.714;2022-09-25T04:08:04;23.10;57.90
71672;DHT22;62112;45.638;11.714;2022-09-25T04:10:31;23.00;57.80
71672;DHT22;62112;45.638;11.714;2022-09-25T04:12:57;23.10;58.00
71672;DHT22;62112;45.638;11.714;2022-09-25T04:15:24;23.00;57.80
71672;DHT22;62112;45.638;11.714;2022-09-25T04:17:50;23.10;57.70
71672;DHT22;62112;45.638;11.714;2022-09-25T04:20:17;23.10;57.80
71672;DHT22;62112;45.638;11.714;2022-09-25T04:22:44;23.10;58.00
71672;DHT22;62112;45.638;11.714;2022-09-25T04:25:10;23.10;58.00
71672;DHT22;62112;45.638;11.714;2022-09-25T04:27:36;23.00;57.80
71672;DHT22;62112;45.638;11.714;2022-09-25T04:30:04;23.10;58.10
71672;DHT22;62112;45.638;11.714;2022-09-25T04:32:30;23.10;57.80
71672;DHT22;62112;45.638;11.714;2022-09-25T04:35:14;23.10;58.00
71672;DHT22;62112;45.638;11.714;2022-09-25T04:37:40;23.10;57.90
71672;DHT22;62112;45.638;11.714;2022-09-25T04:40:07;23.10;57.90
71672;DHT22;62112;45.638;11.714;2022-09-25T04:42:33;23.10;58.00
71672;DHT22;62112;45.638;11.714;2022-09-25T04:44:58;23.00;57.70
71672;DHT22;62112;45.638;11.714;2022-09-25T04:47:26;23.20;57.90
71672;DHT22;62112;45.638;11.714;2022-09-25T04:49:54;23.10;58.30
71672;DHT22;62112;45.638;11.714;2022-09-25T04:52:20;23.00;58.00
71672;DHT22;62112;45.638;11.714;2022-09-25T04:54:46;23.10;58.00
71672;DHT22;62112;45.638;11.714;2022-09-25T04:57:17;23.00;58.20
71672;DHT22;62112;45.638;11.714;2022-09-25T04:59:43;23.10;57.90
71672;DHT22;62112;45.638;11.714;2022-09-25T05:02:10;23.00;57.90
71672;DHT22;62112;45.638;11.714;2022-09-25T05:04:36;23.00;58.10
71672;DHT22;62112;45.638;11.714;2022-09-25T05:07:03;23.00;57.80
71672;DHT22;62112;45.638;11.714;2022-09-25T05:09:29;23.10;57.90
71672;DHT22;62112;45.638;11.714;2022-09-25T05:11:56;23.00;57.70
71672;DHT22;62112;45.638;11.714;2022-09-25T05:14:22;23.10;58.00
71672;DHT22;62112;45.638;11.714;2022-09-25T05:16:48;23.00;57.80
71672;DHT22;62112;45.638;11.714;2022-09-25T05:19:14;23.10;58.30
71672;DHT22;62112;45.638;11.714;2022-09-25T05:21:41;23.00;57.60
71672;DHT22;62112;45.638;11.714;2022-09-25T05:24:07;23.10;57.90
71672;DHT22;62112;45.638;11.714;2022-09-25T05:26:35;23.10;58.30
71672;DHT22;62112;45.638;11.714;2022-09-25T05:29:01;23.00;57.80
71672;DHT22;62112;45.638;11.714;2022-09-25T05:31:27;23.00;58.00
71672;DHT22;62112;45.638;11.714;2022-09-25T05:33:53;23.00;58.00
71672;DHT22;62112;45.638;11.714;2022-09-25T05:36:19;23.00;58.10
71672;DHT22;62112;45.638;11.714;2022-09-25T05:38:45;23.00;58.10
71672;DHT22;62112;45.638;11.714;2022-09-25T05:41:12;23.00;58.20
71672;DHT22;62112;45.638;11.714;2022-09-25T05:43:44;23.00;58.20
71672;DHT22;62112;45.638;11.714;2022-09-25T05:46:12;23.00;58.40
71672;DHT22;62112;45.638;11.714;2022-09-25T05:48:38;23.00;58.00
71672;DHT22;62112;45.638;11.714;2022-09-25T05:51:05;23.10;58.10
71672;DHT22;62112;45.638;11.714;2022-09-25T05:53:31;23.10;58.00
71672;DHT22;62112;45.638;11.714;2022-09-25T05:56:00;23.10;58.10
71672;DHT22;62112;45.638;11.714;2022-09-25T05:58:27;23.10;58.30
71672;DHT22;62112;45.638;11.714;2022-09-25T06:00:53;23.00;58.20
71672;DHT22;62112;45.638;11.714;2022-09-25T06:03:20;23.10;58.00
71672;DHT22;62112;45.638;11.714;2022-09-25T06:05:46;23.10;57.90
71672;DHT22;62112;45.638;11.714;2022-09-25T06:08:13;23.10;58.00
71672;DHT22;62112;45.638;11.714;2022-09-25T06:10:40;23.10;57.90
71672;DHT22;62112;45.638;11.714;2022-09-25T06:13:06;23.10;57.70
71672;DHT22;62112;45.638;11.714;2022-09-25T06:15:34;23.10;58.00
71672;DHT22;62112;45.638;11.714;2022-09-25T06:18:05;23.10;57.60
71672;DHT22;62112;45.638;11.714;2022-09-25T06:20:32;23.10;57.80
71672;DHT22;62112;45.638;11.714;2022-09-25T06:22:58;23.10;57.80
71672;DHT22;62112;45.638;11.714;2022-09-25T06:25:29;23.20;57.50
71672;DHT22;62112;45.638;11.714;2022-09-25T06:27:58;23.20;57.00
71672;DHT22;62112;45.638;11.714;2022-09-25T06:30:29;23.30;57.10
71672;DHT22;62112;45.638;11.714;2022-09-25T06:33:03;23.30;57.20
71672;DHT22;62112;45.638;11.714;2022-09-25T06:35:32;23.20;57.00
71672;DHT22;62112;45.638;11.714;2022-09-25T06:38:00;23.20;57.00
71672;DHT22;62112;45.638;11.714;2022-09-25T06:40:27;23.20;57.30
71672;DHT22;62112;45.638;11.714;2022-09-25T06:43:01;23.20;57.00
71672;DHT22;62112;45.638;11.714;2022-09-25T06:45:28;23.30;57.10
71672;DHT22;62112;45.638;11.714;2022-09-25T06:48:03;23.20;57.40
71672;DHT22;62112;45.638;11.714;2022-09-25T06:53:02;23.20;57.20
71672;DHT22;62112;45.638;11.714;2022-09-25T06:55:35;23.20;57.30
71672;DHT22;62112;45.638;11.714;2022-09-25T06:58:09;23.20;57.20
71672;DHT22;62112;45.638;11.714;2022-09-25T07:00:35;23.20;57.70
71672;DHT22;62112;45.638;11.714;2022-09-25T07:03:01;23.10;57.20
71672;DHT22;62112;45.638;11.714;2022-09-25T07:05:46;23.20;57.00
71672;DHT22;62112;45.638;11.714;2022-09-25T07:08:17;23.10;57.20
71672;DHT22;62112;45.638;11.714;2022-09-25T07:10:49;23.30;57.10
71672;DHT22;62112;45.638;11.714;2022-09-25T07:13:17;23.20;56.90
71672;DHT22;62112;45.638;11.714;2022-09-25T07:15:52;23.20;57.20
71672;DHT22;62112;45.638;11.714;2022-09-25T07:18:19;23.30;56.90
71672;DHT22;62112;45.638;11.714;2022-09-25T07:20:45;23.40;57.10
71672;DHT22;62112;45.638;11.714;2022-09-25T07:23:18;23.40;57.00
71672;DHT22;62112;45.638;11.714;2022-09-25T07:25:45;23.40;57.30
71672;DHT22;62112;45.638;11.714;2022-09-25T07:28:12;23.50;57.10
71672;DHT22;62112;45.638;11.714;2022-09-25T07:30:39;23.50;56.70
71672;DHT22;62112;45.638;11.714;2022-09-25T07:33:05;23.60;54.70
71672;DHT22;62112;45.638;11.714;2022-09-25T07:35:33;23.70;54.40
71672;DHT22;62112;45.638;11.714;2022-09-25T07:38:00;23.70;54.40
71672;DHT22;62112;45.638;11.714;2022-09-25T07:40:26;23.80;54.40
71672;DHT22;62112;45.638;11.714;2022-09-25T07:42:57;23.80;53.80
71672;DHT22;62112;45.638;11.714;2022-09-25T07:45:24;23.90;53.90
71672;DHT22;62112;45.638;11.714;2022-09-25T07:48:00;24.00;53.70
71672;DHT22;62112;45.638;11.714;2022-09-25T07:50:30;24.10;53.40
71672;DHT22;62112;45.638;11.714;2022-09-25T07:52:57;24.10;53.70
71672;DHT22;62112;45.638;11.714;2022-09-25T07:55:24;24.20;53.10
71672;DHT22;62112;45.638;11.714;2022-09-25T07:57:49;24.30;53.10
71672;DHT22;62112;45.638;11.714;2022-09-25T08:00:16;24.30;53.00
71672;DHT22;62112;45.638;11.714;2022-09-25T08:02:42;24.30;53.00
71672;DHT22;62112;45.638;11.714;2022-09-25T08:05:09;24.40;52.80
71672;DHT22;62112;45.638;11.714;2022-09-25T08:07:36;24.40;52.70
71672;DHT22;62112;45.638;11.714;2022-09-25T08:10:07;24.40;52.90
71672;DHT22;62112;45.638;11.714;2022-09-25T08:12:34;24.40;52.90
71672;DHT22;62112;45.638;11.714;2022-09-25T08:15:04;24.50;52.90
71672;DHT22;62112;45.638;11.714;2022-09-25T08:17:35;24.50;52.90
71672;DHT22;62112;45.638;11.714;2022-09-25T08:20:02;24.60;52.50
71672;DHT22;62112;45.638;11.714;2022-09-25T08:22:28;24.60;52.30
71672;DHT22;62112;45.638;11.714;2022-09-25T08:24:54;24.60;52.20
71672;DHT22;62112;45.638;11.714;2022-09-25T08:27:20;24.70;52.40
71672;DHT22;62112;45.638;11.714;2022-09-25T08:29:46;24.70;52.30
71672;DHT22;62112;45.638;11.714;2022-09-25T08:32:12;24.70;52.40
71672;DHT22;62112;45.638;11.714;2022-09-25T08:34:38;24.70;52.20
71672;DHT22;62112;45.638;11.714;2022-09-25T08:37:05;24.70;52.50
71672;DHT22;62112;45.638;11.714;2022-09-25T08:39:32;24.80;52.20
71672;DHT22;62112;45.638;11.714;2022-09-25T08:41:57;24.80;52.20
71672;DHT22;62112;45.638;11.714;2022-09-25T08:44:36;24.90;52.70
71672;DHT22;62112;45.638;11.714;2022-09-25T08:47:19;24.90;52.10
71672;DHT22;62112;45.638;11.714;2022-09-25T08:50:33;24.90;51.80
71672;DHT22;62112;45.638;11.714;2022-09-25T08:53:13;25.00;51.90
71672;DHT22;62112;45.638;11.714;2022-09-25T08:55:42;25.00;51.80
71672;DHT22;62112;45.638;11.714;2022-09-25T08:58:31;24.90;52.10
71672;DHT22;62112;45.638;11.714;2022-09-25T09:01:02;25.00;52.00
71672;DHT22;62112;45.638;11.714;2022-09-25T09:03:32;25.00;51.70
71672;DHT22;62112;45.638;11.714;2022-09-25T09:06:11;24.80;52.00
71672;DHT22;62112;45.638;11.714;2022-09-25T09:08:39;24.80;52.40
71672;DHT22;62112;45.638;11.714;2022-09-25T09:11:33;24.80;52.30
71672;DHT22;62112;45.638;11.714;2022-09-25T09:14:04;24.80;52.20
71672;DHT22;62112;45.638;11.714;2022-09-25T09:16:43;24.80;52.20
71672;DHT22;62112;45.638;11.714;2022-09-25T09:19:11;24.70;52.50
71672;DHT22;62112;45.638;11.714;2022-09-25T09:21:44;24.60;52.80
71672;DHT22;62112;45.638;11.714;2022-09-25T09:30:20;24.60;52.40
71672;DHT22;62112;45.638;11.714;2022-09-25T09:35:29;24.60;52.50
71672;DHT22;62112;45.638;11.714;2022-09-25T09:40:58;24.60;52.50
71672;DHT22;62112;45.638;11.714;2022-09-25T09:46:33;24.70;52.40
71672;DHT22;62112;45.638;11.714;2022-09-25T09:52:08;24.70;51.90
71672;DHT22;62112;45.638;11.714;2022-09-25T09:54:45;24.70;52.30
71672;DHT22;62112;45.638;11.714;2022-09-25T09:57:20;24.80;51.90
71672;DHT22;62112;45.638;11.714;2022-09-25T10:02:39;24.80;51.90
71672;DHT22;62112;45.638;11.714;2022-09-25T10:08:03;24.80;52.10
71672;DHT22;62112;45.638;11.714;2022-09-25T10:10:38;24.80;52.50
71672;DHT22;62112;45.638;11.714;2022-09-25T10:13:30;24.70;52.10
71672;DHT22;62112;45.638;11.714;2022-09-25T10:16:08;24.90;52.40
71672;DHT22;62112;45.638;11.714;2022-09-25T10:18:58;24.80;52.20
71672;DHT22;62112;45.638;11.714;2022-09-25T10:21:32;24.80;52.20
71672;DHT22;62112;45.638;11.714;2022-09-25T10:24:02;24.80;52.30
71672;DHT22;62112;45.638;11.714;2022-09-25T10:29:02;24.80;52.80
71672;DHT22;62112;45.638;11.714;2022-09-25T10:31:35;24.90;52.60
71672;DHT22;62112;45.638;11.714;2022-09-25T10:34:17;24.80;52.60
71672;DHT22;62112;45.638;11.714;2022-09-25T10:36:51;24.90;53.00
71672;DHT22;62112;45.638;11.714;2022-09-25T10:39:29;24.90;52.80
71672;DHT22;62112;45.638;11.714;2022-09-25T10:41:56;24.80;52.90
71672;DHT22;62112;45.638;11.714;2022-09-25T10:44:33;24.90;53.00
71672;DHT22;62112;45.638;11.714;2022-09-25T10:50:22;24.80;53.50
71672;DHT22;62112;45.638;11.714;2022-09-25T10:52:56;24.80;53.50
71672;DHT22;62112;45.638;11.714;2022-09-25T10:55:32;24.90;53.60
71672;DHT22;62112;45.638;11.714;2022-09-25T10:58:21;24.80;53.50
71672;DHT22;62112;45.638;11.714;2022-09-25T11:03:17;24.70;53.60
71672;DHT22;62112;45.638;11.714;2022-09-25T11:05:51;24.80;53.50
71672;DHT22;62112;45.638;11.714;2022-09-25T11:08:17;24.80;53.50
71672;DHT22;62112;45.638;11.714;2022-09-25T11:11:00;24.80;53.60
71672;DHT22;62112;45.638;11.714;2022-09-25T11:13:33;24.80;53.90
71672;DHT22;62112;45.638;11.714;2022-09-25T11:16:04;24.80;53.90
71672;DHT22;62112;45.638;11.714;2022-09-25T11:19:09;24.80;53.80
71672;DHT22;62112;45.638;11.714;2022-09-25T11:24:49;24.80;53.60
71672;DHT22;62112;45.638;11.714;2022-09-25T11:27:21;24.80;53.50
71672;DHT22;62112;45.638;11.714;2022-09-25T11:35:40;24.70;53.90
71672;DHT22;62112;45.638;11.714;2022-09-25T11:41:33;24.80;53.60
71672;DHT22;62112;45.638;11.714;2022-09-25T11:44:16;24.70;53.90
71672;DHT22;62112;45.638;11.714;2022-09-25T11:47:31;24.70;53.40
71672;DHT22;62112;45.638;11.714;2022-09-25T11:50:01;24.80;53.50
71672;DHT22;62112;45.638;11.714;2022-09-25T11:52:40;24.80;53.40
71672;DHT22;62112;45.638;11.714;2022-09-25T12:01:06;24.70;53.20
71672;DHT22;62112;45.638;11.714;2022-09-25T12:06:28;24.90;53.10
71672;DHT22;62112;45.638;11.714;2022-09-25T12:14:47;24.90;52.70
71672;DHT22;62112;45.638;11.714;2022-09-25T12:20:16;24.90;52.80
71672;DHT22;62112;45.638;11.714;2022-09-25T12:28:19;24.90;52.60
71672;DHT22;62112;45.638;11.714;2022-09-25T12:31:09;25.00;52.70
71672;DHT22;62112;45.638;11.714;2022-09-25T12:37:16;25.00;52.60
71672;DHT22;62112;45.638;11.714;2022-09-25T12:39:57;25.10;52.60
71672;DHT22;62112;45.638;11.714;2022-09-25T12:42:44;25.00;52.40
71672;DHT22;62112;45.638;11.714;2022-09-25T12:45:20;25.10;52.40
71672;DHT22;62112;45.638;11.714;2022-09-25T12:50:46;25.00;52.20
71672;DHT22;62112;45.638;11.714;2022-09-25T12:56:01;25.10;52.10
71672;DHT22;62112;45.638;11.714;2022-09-25T13:01:45;25.10;52.20
71672;DHT22;62112;45.638;11.714;2022-09-25T13:06:52;25.00;52.40
71672;DHT22;62112;45.638;11.714;2022-09-25T13:09:34;25.00;52.30
71672;DHT22;62112;45.638;11.714;2022-09-25T13:12:11;25.00;52.10
71672;DHT22;62112;45.638;11.714;2022-09-25T13:14:51;25.00;52.50
71672;DHT22;62112;45.638;11.714;2022-09-25T13:17:19;25.00;52.00
71672;DHT22;62112;45.638;11.714;2022-09-25T13:19:45;25.00;52.20
71672;DHT22;62112;45.638;11.714;2022-09-25T13:22:12;24.90;52.60
71672;DHT22;62112;45.638;11.714;2022-09-25T13:24:43;24.90;52.50
71672;DHT22;62112;45.638;11.714;2022-09-25T13:27:18;25.00;52.10
71672;DHT22;62112;45.638;11.714;2022-09-25T13:29:55;25.00;52.70
71672;DHT22;62112;45.638;11.714;2022-09-25T13:32:23;24.90;52.10
71672;DHT22;62112;45.638;11.714;2022-09-25T13:34:58;24.90;52.40
71672;DHT22;62112;45.638;11.714;2022-09-25T13:37:31;24.90;52.10
71672;DHT22;62112;45.638;11.714;2022-09-25T13:39:59;25.00;52.00
71672;DHT22;62112;45.638;11.714;2022-09-25T13:42:45;24.90;52.40
71672;DHT22;62112;45.638;11.714;2022-09-25T13:45:45;24.90;52.10
71672;DHT22;62112;45.638;11.714;2022-09-25T13:48:10;24.90;52.30
71672;DHT22;62112;45.638;11.714;2022-09-25T13:50:45;24.80;52.40
71672;DHT22;62112;45.638;11.714;2022-09-25T13:53:14;24.80;52.60
71672;DHT22;62112;45.638;11.714;2022-09-25T13:58:25;24.80;52.40
71672;DHT22;62112;45.638;11.714;2022-09-25T14:00:55;24.80;52.30
71672;DHT22;62112;45.638;11.714;2022-09-25T14:08:46;24.70;52.50
71672;DHT22;62112;45.638;11.714;2022-09-25T14:11:16;24.70;52.70
71672;DHT22;62112;45.638;11.714;2022-09-25T14:13:43;24.60;52.80
71672;DHT22;62112;45.638;11.714;2022-09-25T14:18:51;24.60;53.00
71672;DHT22;62112;45.638;11.714;2022-09-25T14:21:19;24.50;52.40
71672;DHT22;62112;45.638;11.714;2022-09-25T14:23:49;24.60;52.90
71672;DHT22;62112;45.638;11.714;2022-09-25T14:26:21;24.60;53.00
71672;DHT22;62112;45.638;11.714;2022-09-25T14:28:50;24.60;53.20
71672;DHT22;62112;45.638;11.714;2022-09-25T14:31:36;24.60;53.00
71672;DHT22;62112;45.638;11.714;2022-09-25T14:34:22;24.50;53.00
71672;DHT22;62112;45.638;11.714;2022-09-25T14:40:00;24.50;53.20
71672;DHT22;62112;45.638;11.714;2022-09-25T14:42:56;24.50;53.10
71672;DHT22;62112;45.638;11.714;2022-09-25T14:48:08;24.50;53.20
71672;DHT22;62112;45.638;11.714;2022-09-25T14:50:38;24.50;53.30
71672;DHT22;62112;45.638;11.714;2022-09-25T14:53:12;24.50;53.10
71672;DHT22;62112;45.638;11.714;2022-09-25T14:55:50;24.50;53.10
71672;DHT22;62112;45.638;11.714;2022-09-25T14:58:23;24.40;53.10
71672;DHT22;62112;45.638;11.714;2022-09-25T15:00:56;24.40;53.10
71672;DHT22;62112;45.638;11.714;2022-09-25T15:03:29;24.50;52.90
71672;DHT22;62112;45.638;11.714;2022-09-25T15:05:59;24.40;52.90
71672;DHT22;62112;45.638;11.714;2022-09-25T15:08:40;24.40;53.20
71672;DHT22;62112;45.638;11.714;2022-09-25T15:11:15;24.40;53.30
71672;DHT22;62112;45.638;11.714;2022-09-25T15:13:43;24.40;53.30
71672;DHT22;62112;45.638;11.714;2022-09-25T15:16:20;24.30;53.40
71672;DHT22;62112;45.638;11.714;2022-09-25T15:19:35;24.30;53.40
71672;DHT22;62112;45.638;11.714;2022-09-25T15:22:11;24.30;53.60
71672;DHT22;62112;45.638;11.714;2022-09-25T15:24:49;24.30;53.50
71672;DHT22;62112;45.638;11.714;2022-09-25T15:27:16;24.30;53.40
71672;DHT22;62112;45.638;11.714;2022-09-25T15:29:45;24.30;53.80
71672;DHT22;62112;45.638;11.714;2022-09-25T15:32:26;24.20;53.70
71672;DHT22;62112;45.638;11.714;2022-09-25T15:35:25;24.30;53.50
71672;DHT22;62112;45.638;11.714;2022-09-25T15:38:09;24.30;53.80
71672;DHT22;62112;45.638;11.714;2022-09-25T15:40:35;24.30;53.40
71672;DHT22;62112;45.638;11.714;2022-09-25T15:43:01;24.30;53.50
71672;DHT22;62112;45.638;11.714;2022-09-25T15:45:36;24.30;53.90
71672;DHT22;62112;45.638;11.714;2022-09-25T15:48:09;24.30;53.80
71672;DHT22;62112;45.638;11.714;2022-09-25T15:50:36;24.30;54.10
71672;DHT22;62112;45.638;11.714;2022-09-25T15:53:27;24.30;53.70
71672;DHT22;62112;45.638;11.714;2022-09-25T15:59:16;24.30;54.00
71672;DHT22;62112;45.638;11.714;2022-09-25T16:01:43;24.30;54.00
71672;DHT22;62112;45.638;11.714;2022-09-25T16:04:27;24.20;53.70
71672;DHT22;62112;45.638;11.714;2022-09-25T16:07:32;24.20;53.90
71672;DHT22;62112;45.638;11.714;2022-09-25T16:17:55;24.20;53.90
71672;DHT22;62112;45.638;11.714;2022-09-25T16:20:33;24.20;53.80
71672;DHT22;62112;45.638;11.714;2022-09-25T16:23:04;24.10;53.60
71672;DHT22;62112;45.638;11.714;2022-09-25T16:25:33;24.20;53.80
71672;DHT22;62112;45.638;11.714;2022-09-25T16:28:29;24.20;54.10
71672;DHT22;62112;45.638;11.714;2022-09-25T16:31:00;24.10;54.10
71672;DHT22;62112;45.638;11.714;2022-09-25T16:33:33;24.10;53.90
71672;DHT22;62112;45.638;11.714;2022-09-25T16:36:13;24.10;54.00
71672;DHT22;62112;45.638;11.714;2022-09-25T16:39:09;24.20;54.30
71672;DHT22;62112;45.638;11.714;2022-09-25T16:41:45;24.10;54.30
71672;DHT22;62112;45.638;11.714;2022-09-25T16:44:35;24.10;54.10
71672;DHT22;62112;45.638;11.714;2022-09-25T16:47:19;24.10;53.90
71672;DHT22;62112;45.638;11.714;2022-09-25T16:49:46;24.10;54.20
71672;DHT22;62112;45.638;11.714;2022-09-25T16:52:18;24.10;54.30
71672;DHT22;62112;45.638;11.714;2022-09-25T16:54:47;24.10;54.30
71672;DHT22;62112;45.638;11.714;2022-09-25T16:57:17;24.00;54.30
71672;DHT22;62112;45.638;11.714;2022-09-25T16:59:43;24.00;54.40
71672;DHT22;62112;45.638;11.714;2022-09-25T17:02:30;24.10;54.10
71672;DHT22;62112;45.638;11.714;2022-09-25T17:05:17;24.00;54.10
71672;DHT22;62112;45.638;11.714;2022-09-25T17:08:02;24.00;54.40
71672;DHT22;62112;45.638;11.714;2022-09-25T17:10:35;24.00;54.00
71672;DHT22;62112;45.638;11.714;2022-09-25T17:13:09;24.00;53.90
71672;DHT22;62112;45.638;11.714;2022-09-25T17:15:39;24.00;54.00
71672;DHT22;62112;45.638;11.714;2022-09-25T17:18:18;24.00;53.90
71672;DHT22;62112;45.638;11.714;2022-09-25T17:20:46;24.10;54.30
71672;DHT22;62112;45.638;11.714;2022-09-25T17:23:17;24.10;53.90
71672;DHT22;62112;45.638;11.714;2022-09-25T17:25:49;24.00;53.60
71672;DHT22;62112;45.638;11.714;2022-09-25T17:28:15;24.00;54.20
71672;DHT22;62112;45.638;11.714;2022-09-25T17:30:43;24.00;54.10
71672;DHT22;62112;45.638;11.714;2022-09-25T17:33:14;24.00;54.60
71672;DHT22;62112;45.638;11.714;2022-09-25T17:35:46;24.00;54.40
71672;DHT22;62112;45.638;11.714;2022-09-25T17:38:13;24.00;54.60
71672;DHT22;62112;45.638;11.714;2022-09-25T17:40:44;24.00;54.70
71672;DHT22;62112;45.638;11.714;2022-09-25T17:43:11;23.90;54.60
71672;DHT22;62112;45.638;11.714;2022-09-25T17:45:49;24.00;54.70
71672;DHT22;62112;45.638;11.714;2022-09-25T17:48:20;24.00;55.20
71672;DHT22;62112;45.638;11.714;2022-09-25T17:50:57;24.00;54.80
71672;DHT22;62112;45.638;11.714;2022-09-25T17:53:26;23.90;55.20
71672;DHT22;62112;45.638;11.714;2022-09-25T17:55:58;23.90;54.80
71672;DHT22;62112;45.638;11.714;2022-09-25T17:58:27;24.00;55.10
71672;DHT22;62112;45.638;11.714;2022-09-25T18:00:56;23.90;54.90
71672;DHT22;62112;45.638;11.714;2022-09-25T18:03:24;24.00;55.10
71672;DHT22;62112;45.638;11.714;2022-09-25T18:05:50;24.00;55.30
71672;DHT22;62112;45.638;11.714;2022-09-25T18:08:17;23.90;55.50
71672;DHT22;62112;45.638;11.714;2022-09-25T18:10:44;23.90;55.10
71672;DHT22;62112;45.638;11.714;2022-09-25T18:13:15;23.90;55.40
71672;DHT22;62112;45.638;11.714;2022-09-25T18:15:49;23.90;55.40
71672;DHT22;62112;45.638;11.714;2022-09-25T18:18:15;24.00;55.40